sensor_id;sensor_type;location;lat;lon;timestamp;P1;durP1;ratioP1;P2;durP2;ratioP2
40515;SDS011;26216;53.724;9.898;2022-10-31T00:02:06;7.22;;;6.10;;
40515;SDS011;26216;53.724;9.898;2022-10-31T00:04:32;7.78;;;6.13;;
40515;SDS011;26216;53.724;9.898;2022-10-31T00:06:57;8.02;;;6.10;;
40515;SDS011;26216;53.724;9.898;2022-10-31T00:09:23;7.70;;;6.40;;
40515;SDS011;26216;53.724;9.898;2022-10-31T00:11:49;7.47;;;6.03;;
40515;SDS011;26216;53.724;9.898;2022-10-31T00:14:15;7.50;;;5.95;;
40515;SDS011;26216;53.724;9.898;2022-10-31T00:16:41;8.02;;;5.60;;
40515;SDS011;26216;53.724;9.898;2022-10-31T00:19:07;6.10;;;5.35;;
40515;SDS011;26216;53.724;9.898;2022-10-31T00:21:33;9.00;;;5.82;;
40515;SDS011;26216;53.724;9.898;2022-10-31T00:23:59;7.03;;;5.72;;
40515;SDS011;26216;53.724;9.898;2022-10-31T00:26:26;6.25;;;5.32;;
40515;SDS011;26216;53.724;9.898;2022-10-31T00:28:53;5.90;;;5.18;;
40515;SDS011;26216;53.724;9.898;2022-10-31T00:31:19;7.43;;;5.82;;
40515;SDS011;26216;53.724;9.898;2022-10-31T00:33:45;7.25;;;5.70;;
40515;SDS011;26216;53.724;9.898;2022-10-31T00:36:13;6.97;;;5.70;;
40515;SDS011;26216;53.724;9.898;2022-10-31T00:38:40;6.97;;;5.55;;
40515;SDS011;26216;53.724;9.898;2022-10-31T00:41:07;6.70;;;5.10;;
40515;SDS011;26216;53.724;9.898;2022-10-31T00:43:34;7.05;;;4.97;;
40515;SDS011;26216;53.724;9.898;2022-10-31T00:46:00;6.15;;;5.50;;
40515;SDS011;26216;53.724;9.898;2022-10-31T00:48:25;6.47;;;5.32;;
40515;SDS011;26216;53.724;9.898;2022-10-31T00:50:51;5.45;;;4.75;;
40515;SDS011;26216;53.724;9.898;2022-10-31T00:53:17;6.55;;;4.88;;
40515;SDS011;26216;53.724;9.898;2022-10-31T00:55:43;6.65;;;5.07;;
40515;SDS011;26216;53.724;9.898;2022-10-31T00:58:09;6.40;;;5.18;;
40515;SDS011;26216;53.724;9.898;2022-10-31T01:00:35;5.90;;;4.88;;
40515;SDS011;26216;53.724;9.898;2022-10-31T01:03:01;7.78;;;5.70;;
40515;SDS011;26216;53.724;9.898;2022-10-31T01:05:26;6.68;;;5.22;;
40515;SDS011;26216;53.724;9.898;2022-10-31T01:07:52;8.40;;;5.78;;
40515;SDS011;26216;53.724;9.898;2022-10-31T01:10:18;6.13;;;5.10;;
40515;SDS011;26216;53.724;9.898;2022-10-31T01:12:47;6.45;;;5.00;;
40515;SDS011;26216;53.724;9.898;2022-10-31T01:15:15;6.72;;;5.22;;
40515;SDS011;26216;53.724;9.898;2022-10-31T01:17:43;6.80;;;5.22;;
40515;SDS011;26216;53.724;9.898;2022-10-31T01:20:09;5.75;;;4.75;;
40515;SDS011;26216;53.724;9.898;2022-10-31T01:22:37;8.57;;;4.78;;
40515;SDS011;26216;53.724;9.898;2022-10-31T01:25:02;6.93;;;5.57;;
40515;SDS011;26216;53.724;9.898;2022-10-31T01:27:29;6.32;;;5.05;;
40515;SDS011;26216;53.724;9.898;2022-10-31T01:29:56;8.30;;;4.90;;
40515;SDS011;26216;53.724;9.898;2022-10-31T01:32:22;7.30;;;5.18;;
40515;SDS011;26216;53.724;9.898;2022-10-31T01:34:48;7.63;;;5.15;;
40515;SDS011;26216;53.724;9.898;2022-10-31T01:37:14;6.25;;;5.18;;
40515;SDS011;26216;53.724;9.898;2022-10-31T01:39:40;6.05;;;4.40;;
40515;SDS011;26216;53.724;9.898;2022-10-31T01:42:06;6.00;;;4.95;;
40515;SDS011;26216;53.724;9.898;2022-10-31T01:49:24;5.45;;;4.45;;
40515;SDS011;26216;53.724;9.898;2022-10-31T01:52:01;5.05;;;4.55;;
40515;SDS011;26216;53.724;9.898;2022-10-31T01:54:51;6.95;;;4.70;;
40515;SDS011;26216;53.724;9.898;2022-10-31T01:57:23;5.78;;;4.63;;
40515;SDS011;26216;53.724;9.898;2022-10-31T01:59:51;5.10;;;3.97;;
40515;SDS011;26216;53.724;9.898;2022-10-31T02:02:22;5.68;;;4.22;;
40515;SDS011;26216;53.724;9.898;2022-10-31T02:04:49;5.80;;;4.38;;
40515;SDS011;26216;53.724;9.898;2022-10-31T02:07:20;6.45;;;4.65;;
40515;SDS011;26216;53.724;9.898;2022-10-31T02:09:52;6.50;;;3.85;;
40515;SDS011;26216;53.724;9.898;2022-10-31T02:12:20;5.63;;;4.35;;
40515;SDS011;26216;53.724;9.898;2022-10-31T02:14:47;4.43;;;3.75;;
40515;SDS011;26216;53.724;9.898;2022-10-31T02:17:13;5.35;;;4.53;;
40515;SDS011;26216;53.724;9.898;2022-10-31T02:19:41;6.28;;;4.43;;
40515;SDS011;26216;53.724;9.898;2022-10-31T02:33:53;6.07;;;4.70;;
40515;SDS011;26216;53.724;9.898;2022-10-31T02:47:29;5.75;;;3.65;;
40515;SDS011;26216;53.724;9.898;2022-10-31T02:52:28;5.03;;;4.30;;
40515;SDS011;26216;53.724;9.898;2022-10-31T02:54:56;6.75;;;4.80;;
40515;SDS011;26216;53.724;9.898;2022-10-31T02:57:24;7.43;;;5.65;;
40515;SDS011;26216;53.724;9.898;2022-10-31T03:00:04;9.20;;;5.30;;
40515;SDS011;26216;53.724;9.898;2022-10-31T03:05:11;8.27;;;5.50;;
40515;SDS011;26216;53.724;9.898;2022-10-31T03:13:34;7.38;;;6.18;;
40515;SDS011;26216;53.724;9.898;2022-10-31T03:16:49;9.65;;;6.50;;
40515;SDS011;26216;53.724;9.898;2022-10-31T03:21:54;9.50;;;6.63;;
40515;SDS011;26216;53.724;9.898;2022-10-31T03:24:27;9.57;;;6.30;;
40515;SDS011;26216;53.724;9.898;2022-10-31T03:26:57;7.53;;;5.05;;
40515;SDS011;26216;53.724;9.898;2022-10-31T03:29:25;8.25;;;6.00;;
40515;SDS011;26216;53.724;9.898;2022-10-31T03:34:24;7.72;;;5.93;;
40515;SDS011;26216;53.724;9.898;2022-10-31T03:36:52;9.05;;;6.53;;
40515;SDS011;26216;53.724;9.898;2022-10-31T03:41:50;9.57;;;6.43;;
40515;SDS011;26216;53.724;9.898;2022-10-31T03:44:25;7.75;;;6.05;;
40515;SDS011;26216;53.724;9.898;2022-10-31T03:46:54;7.95;;;5.32;;
40515;SDS011;26216;53.724;9.898;2022-10-31T03:49:20;9.07;;;5.97;;
40515;SDS011;26216;53.724;9.898;2022-10-31T03:52:01;9.70;;;5.57;;
40515;SDS011;26216;53.724;9.898;2022-10-31T03:54:49;7.55;;;5.55;;
40515;SDS011;26216;53.724;9.898;2022-10-31T04:00:01;8.15;;;5.93;;
40515;SDS011;26216;53.724;9.898;2022-10-31T04:02:40;9.77;;;5.65;;
40515;SDS011;26216;53.724;9.898;2022-10-31T04:05:09;8.43;;;5.55;;
40515;SDS011;26216;53.724;9.898;2022-10-31T04:07:37;7.20;;;6.03;;
40515;SDS011;26216;53.724;9.898;2022-10-31T04:10:08;10.10;;;6.20;;
40515;SDS011;26216;53.724;9.898;2022-10-31T04:12:37;9.30;;;6.50;;
40515;SDS011;26216;53.724;9.898;2022-10-31T04:15:07;9.38;;;6.95;;
40515;SDS011;26216;53.724;9.898;2022-10-31T04:17:37;8.32;;;6.47;;
40515;SDS011;26216;53.724;9.898;2022-10-31T04:20:07;8.75;;;6.32;;
40515;SDS011;26216;53.724;9.898;2022-10-31T04:22:33;12.57;;;9.13;;
40515;SDS011;26216;53.724;9.898;2022-10-31T04:24:59;10.13;;;7.85;;
40515;SDS011;26216;53.724;9.898;2022-10-31T04:27:25;9.60;;;7.40;;
40515;SDS011;26216;53.724;9.898;2022-10-31T04:29:50;12.63;;;9.77;;
40515;SDS011;26216;53.724;9.898;2022-10-31T04:32:16;11.25;;;8.27;;
40515;SDS011;26216;53.724;9.898;2022-10-31T04:34:42;10.93;;;8.20;;
40515;SDS011;26216;53.724;9.898;2022-10-31T04:37:08;13.40;;;9.00;;
40515;SDS011;26216;53.724;9.898;2022-10-31T04:39:34;13.55;;;9.38;;
40515;SDS011;26216;53.724;9.898;2022-10-31T04:42:00;13.05;;;9.48;;
40515;SDS011;26216;53.724;9.898;2022-10-31T04:44:26;10.95;;;8.50;;
40515;SDS011;26216;53.724;9.898;2022-10-31T04:46:52;11.45;;;8.40;;
40515;SDS011;26216;53.724;9.898;2022-10-31T04:49:18;10.57;;;8.55;;
40515;SDS011;26216;53.724;9.898;2022-10-31T04:51:43;12.18;;;8.73;;
40515;SDS011;26216;53.724;9.898;2022-10-31T04:54:09;9.60;;;7.80;;
40515;SDS011;26216;53.724;9.898;2022-10-31T04:56:35;13.57;;;10.38;;
40515;SDS011;26216;53.724;9.898;2022-10-31T04:59:01;15.55;;;11.18;;
40515;SDS011;26216;53.724;9.898;2022-10-31T05:01:26;13.45;;;9.70;;
40515;SDS011;26216;53.724;9.898;2022-10-31T05:03:53;15.75;;;11.43;;
40515;SDS011;26216;53.724;9.898;2022-10-31T05:06:18;20.98;;;13.70;;
40515;SDS011;26216;53.724;9.898;2022-10-31T05:08:44;19.23;;;14.35;;
40515;SDS011;26216;53.724;9.898;2022-10-31T05:11:10;16.58;;;12.27;;
40515;SDS011;26216;53.724;9.898;2022-10-31T05:13:36;15.50;;;11.52;;
40515;SDS011;26216;53.724;9.898;2022-10-31T05:16:02;18.63;;;13.18;;
40515;SDS011;26216;53.724;9.898;2022-10-31T05:18:28;15.45;;;10.77;;
40515;SDS011;26216;53.724;9.898;2022-10-31T05:20:54;14.57;;;10.32;;
40515;SDS011;26216;53.724;9.898;2022-10-31T05:23:20;17.30;;;11.32;;
40515;SDS011;26216;53.724;9.898;2022-10-31T05:25:45;14.27;;;9.70;;
40515;SDS011;26216;53.724;9.898;2022-10-31T05:28:11;11.68;;;9.27;;
40515;SDS011;26216;53.724;9.898;2022-10-31T05:30:37;12.77;;;8.90;;
40515;SDS011;26216;53.724;9.898;2022-10-31T05:33:03;11.18;;;8.55;;
40515;SDS011;26216;53.724;9.898;2022-10-31T05:35:31;10.00;;;8.40;;
40515;SDS011;26216;53.724;9.898;2022-10-31T05:37:57;10.43;;;8.38;;
40515;SDS011;26216;53.724;9.898;2022-10-31T05:40:24;9.75;;;8.15;;
40515;SDS011;26216;53.724;9.898;2022-10-31T05:42:51;9.13;;;7.30;;
40515;SDS011;26216;53.724;9.898;2022-10-31T05:45:19;10.18;;;7.45;;
40515;SDS011;26216;53.724;9.898;2022-10-31T05:47:55;12.23;;;9.05;;
40515;SDS011;26216;53.724;9.898;2022-10-31T05:50:23;11.55;;;7.90;;
40515;SDS011;26216;53.724;9.898;2022-10-31T05:52:57;10.57;;;7.88;;
40515;SDS011;26216;53.724;9.898;2022-10-31T05:55:27;8.98;;;7.20;;
40515;SDS011;26216;53.724;9.898;2022-10-31T05:57:53;13.38;;;8.98;;
40515;SDS011;26216;53.724;9.898;2022-10-31T06:00:20;12.13;;;9.38;;
40515;SDS011;26216;53.724;9.898;2022-10-31T06:02:48;12.65;;;9.32;;
40515;SDS011;26216;53.724;9.898;2022-10-31T06:05:14;10.25;;;8.15;;
40515;SDS011;26216;53.724;9.898;2022-10-31T06:07:41;14.70;;;11.63;;
40515;SDS011;26216;53.724;9.898;2022-10-31T06:10:07;12.70;;;9.43;;
40515;SDS011;26216;53.724;9.898;2022-10-31T06:12:34;13.60;;;8.95;;
40515;SDS011;26216;53.724;9.898;2022-10-31T06:15:05;14.00;;;10.18;;
40515;SDS011;26216;53.724;9.898;2022-10-31T06:17:36;10.57;;;8.57;;
40515;SDS011;26216;53.724;9.898;2022-10-31T06:20:02;10.77;;;7.72;;
40515;SDS011;26216;53.724;9.898;2022-10-31T06:22:29;10.23;;;7.60;;
40515;SDS011;26216;53.724;9.898;2022-10-31T06:24:54;9.57;;;7.45;;
40515;SDS011;26216;53.724;9.898;2022-10-31T06:27:20;9.07;;;6.85;;
40515;SDS011;26216;53.724;9.898;2022-10-31T06:29:46;10.23;;;7.28;;
40515;SDS011;26216;53.724;9.898;2022-10-31T06:32:12;10.02;;;7.35;;
40515;SDS011;26216;53.724;9.898;2022-10-31T06:34:39;7.45;;;6.30;;
40515;SDS011;26216;53.724;9.898;2022-10-31T06:37:09;8.55;;;6.40;;
40515;SDS011;26216;53.724;9.898;2022-10-31T06:39:36;8.30;;;7.05;;
40515;SDS011;26216;53.724;9.898;2022-10-31T06:42:02;10.88;;;8.40;;
40515;SDS011;26216;53.724;9.898;2022-10-31T06:44:28;9.57;;;7.90;;
40515;SDS011;26216;53.724;9.898;2022-10-31T06:46:54;8.85;;;7.25;;
40515;SDS011;26216;53.724;9.898;2022-10-31T06:49:20;9.02;;;7.50;;
40515;SDS011;26216;53.724;9.898;2022-10-31T06:51:49;8.57;;;7.03;;
40515;SDS011;26216;53.724;9.898;2022-10-31T06:54:16;9.63;;;7.60;;
40515;SDS011;26216;53.724;9.898;2022-10-31T06:56:42;7.70;;;6.07;;
40515;SDS011;26216;53.724;9.898;2022-10-31T06:59:10;7.75;;;6.57;;
40515;SDS011;26216;53.724;9.898;2022-10-31T07:01:36;10.43;;;8.25;;
40515;SDS011;26216;53.724;9.898;2022-10-31T07:04:02;9.85;;;7.70;;
40515;SDS011;26216;53.724;9.898;2022-10-31T07:06:28;12.57;;;8.35;;
40515;SDS011;26216;53.724;9.898;2022-10-31T07:08:53;8.68;;;6.82;;
40515;SDS011;26216;53.724;9.898;2022-10-31T07:11:19;7.93;;;6.57;;
40515;SDS011;26216;53.724;9.898;2022-10-31T07:13:45;10.02;;;7.78;;
40515;SDS011;26216;53.724;9.898;2022-10-31T07:16:11;12.15;;;9.23;;
40515;SDS011;26216;53.724;9.898;2022-10-31T07:18:38;12.65;;;8.10;;
40515;SDS011;26216;53.724;9.898;2022-10-31T07:21:04;10.32;;;8.73;;
40515;SDS011;26216;53.724;9.898;2022-10-31T07:23:30;16.40;;;10.95;;
40515;SDS011;26216;53.724;9.898;2022-10-31T07:25:56;11.75;;;9.63;;
40515;SDS011;26216;53.724;9.898;2022-10-31T07:28:23;8.93;;;7.10;;
40515;SDS011;26216;53.724;9.898;2022-10-31T07:30:54;9.07;;;7.68;;
40515;SDS011;26216;53.724;9.898;2022-10-31T07:33:21;12.27;;;9.20;;
40515;SDS011;26216;53.724;9.898;2022-10-31T07:35:48;10.20;;;8.65;;
40515;SDS011;26216;53.724;9.898;2022-10-31T07:38:14;10.35;;;7.72;;
40515;SDS011;26216;53.724;9.898;2022-10-31T07:40:40;7.30;;;6.53;;
40515;SDS011;26216;53.724;9.898;2022-10-31T07:43:07;8.70;;;6.82;;
40515;SDS011;26216;53.724;9.898;2022-10-31T07:45:33;7.30;;;5.80;;
40515;SDS011;26216;53.724;9.898;2022-10-31T07:47:59;6.90;;;5.55;;
40515;SDS011;26216;53.724;9.898;2022-10-31T07:50:26;9.98;;;7.15;;
40515;SDS011;26216;53.724;9.898;2022-10-31T07:52:58;16.83;;;7.88;;
40515;SDS011;26216;53.724;9.898;2022-10-31T07:55:31;7.90;;;6.30;;
40515;SDS011;26216;53.724;9.898;2022-10-31T07:57:58;10.73;;;7.22;;
40515;SDS011;26216;53.724;9.898;2022-10-31T08:00:26;9.27;;;7.20;;
40515;SDS011;26216;53.724;9.898;2022-10-31T08:02:58;7.13;;;5.95;;
40515;SDS011;26216;53.724;9.898;2022-10-31T08:05:43;10.73;;;8.07;;
40515;SDS011;26216;53.724;9.898;2022-10-31T08:08:13;9.82;;;7.65;;
40515;SDS011;26216;53.724;9.898;2022-10-31T08:10:39;9.57;;;8.18;;
40515;SDS011;26216;53.724;9.898;2022-10-31T08:13:12;7.68;;;6.75;;
40515;SDS011;26216;53.724;9.898;2022-10-31T08:15:39;8.02;;;6.47;;
40515;SDS011;26216;53.724;9.898;2022-10-31T08:18:06;7.95;;;6.70;;
40515;SDS011;26216;53.724;9.898;2022-10-31T08:20:40;8.20;;;6.65;;
40515;SDS011;26216;53.724;9.898;2022-10-31T08:23:06;7.28;;;6.43;;
40515;SDS011;26216;53.724;9.898;2022-10-31T08:25:34;7.55;;;6.55;;
40515;SDS011;26216;53.724;9.898;2022-10-31T08:28:00;9.70;;;8.20;;
40515;SDS011;26216;53.724;9.898;2022-10-31T08:30:27;8.02;;;6.65;;
40515;SDS011;26216;53.724;9.898;2022-10-31T08:35:32;6.75;;;5.60;;
40515;SDS011;26216;53.724;9.898;2022-10-31T08:37:58;9.07;;;6.65;;
40515;SDS011;26216;53.724;9.898;2022-10-31T08:40:25;6.55;;;5.50;;
40515;SDS011;26216;53.724;9.898;2022-10-31T08:43:02;7.22;;;5.85;;
40515;SDS011;26216;53.724;9.898;2022-10-31T08:45:35;8.45;;;6.32;;
40515;SDS011;26216;53.724;9.898;2022-10-31T08:48:03;7.25;;;6.13;;
40515;SDS011;26216;53.724;9.898;2022-10-31T08:50:31;5.93;;;5.20;;
40515;SDS011;26216;53.724;9.898;2022-10-31T08:53:09;7.75;;;5.88;;
40515;SDS011;26216;53.724;9.898;2022-10-31T08:55:37;7.75;;;5.85;;
40515;SDS011;26216;53.724;9.898;2022-10-31T08:58:05;6.60;;;5.57;;
40515;SDS011;26216;53.724;9.898;2022-10-31T09:00:33;6.97;;;5.85;;
40515;SDS011;26216;53.724;9.898;2022-10-31T09:03:01;6.07;;;5.07;;
40515;SDS011;26216;53.724;9.898;2022-10-31T09:05:29;9.73;;;4.72;;
40515;SDS011;26216;53.724;9.898;2022-10-31T09:07:56;6.95;;;5.15;;
40515;SDS011;26216;53.724;9.898;2022-10-31T09:10:23;6.10;;;4.93;;
40515;SDS011;26216;53.724;9.898;2022-10-31T09:12:59;6.60;;;5.43;;
40515;SDS011;26216;53.724;9.898;2022-10-31T09:15:27;7.82;;;6.22;;
40515;SDS011;26216;53.724;9.898;2022-10-31T09:17:53;7.43;;;5.72;;
40515;SDS011;26216;53.724;9.898;2022-10-31T09:20:19;7.63;;;5.03;;
40515;SDS011;26216;53.724;9.898;2022-10-31T09:22:45;6.90;;;4.78;;
40515;SDS011;26216;53.724;9.898;2022-10-31T09:25:12;6.60;;;4.80;;
40515;SDS011;26216;53.724;9.898;2022-10-31T09:27:39;6.45;;;4.93;;
40515;SDS011;26216;53.724;9.898;2022-10-31T09:30:04;6.70;;;5.30;;
40515;SDS011;26216;53.724;9.898;2022-10-31T09:32:31;8.07;;;6.13;;
40515;SDS011;26216;53.724;9.898;2022-10-31T09:34:57;8.02;;;6.15;;
40515;SDS011;26216;53.724;9.898;2022-10-31T09:37:23;8.90;;;6.57;;
40515;SDS011;26216;53.724;9.898;2022-10-31T09:39:49;8.93;;;5.85;;
40515;SDS011;26216;53.724;9.898;2022-10-31T09:42:23;7.75;;;5.32;;
40515;SDS011;26216;53.724;9.898;2022-10-31T09:50:49;7.07;;;5.60;;
40515;SDS011;26216;53.724;9.898;2022-10-31T09:53:32;9.57;;;6.32;;
40515;SDS011;26216;53.724;9.898;2022-10-31T09:56:13;9.75;;;7.55;;
40515;SDS011;26216;53.724;9.898;2022-10-31T09:58:42;8.93;;;6.25;;
40515;SDS011;26216;53.724;9.898;2022-10-31T10:01:19;9.48;;;8.10;;
40515;SDS011;26216;53.724;9.898;2022-10-31T10:07:53;8.95;;;6.80;;
40515;SDS011;26216;53.724;9.898;2022-10-31T10:09:56;7.07;;;5.40;;
40515;SDS011;26216;53.724;9.898;2022-10-31T10:15:27;5.68;;;4.47;;
40515;SDS011;26216;53.724;9.898;2022-10-31T10:26:34;7.90;;;5.70;;
40515;SDS011;26216;53.724;9.898;2022-10-31T10:29:24;7.63;;;5.85;;
40515;SDS011;26216;53.724;9.898;2022-10-31T10:32:05;6.53;;;4.93;;
40515;SDS011;26216;53.724;9.898;2022-10-31T10:34:47;7.85;;;5.65;;
40515;SDS011;26216;53.724;9.898;2022-10-31T10:37:20;8.93;;;5.97;;
40515;SDS011;26216;53.724;9.898;2022-10-31T10:39:55;8.30;;;5.28;;
40515;SDS011;26216;53.724;9.898;2022-10-31T10:42:25;8.05;;;5.75;;
40515;SDS011;26216;53.724;9.898;2022-10-31T10:45:15;6.32;;;4.97;;
40515;SDS011;26216;53.724;9.898;2022-10-31T10:48:06;7.47;;;5.20;;
40515;SDS011;26216;53.724;9.898;2022-10-31T10:50:42;7.13;;;5.25;;
40515;SDS011;26216;53.724;9.898;2022-10-31T10:56:30;6.63;;;4.65;;
40515;SDS011;26216;53.724;9.898;2022-10-31T10:59:07;6.53;;;4.70;;
40515;SDS011;26216;53.724;9.898;2022-10-31T11:01:36;6.93;;;4.93;;
40515;SDS011;26216;53.724;9.898;2022-10-31T11:04:07;6.85;;;4.95;;
40515;SDS011;26216;53.724;9.898;2022-10-31T11:07:07;5.88;;;4.40;;
40515;SDS011;26216;53.724;9.898;2022-10-31T11:09:35;6.13;;;4.43;;
40515;SDS011;26216;53.724;9.898;2022-10-31T11:12:07;6.45;;;4.75;;
40515;SDS011;26216;53.724;9.898;2022-10-31T11:14:46;7.30;;;5.03;;
40515;SDS011;26216;53.724;9.898;2022-10-31T11:20:32;9.05;;;5.05;;
40515;SDS011;26216;53.724;9.898;2022-10-31T11:23:03;7.55;;;5.32;;
40515;SDS011;26216;53.724;9.898;2022-10-31T11:26:03;9.45;;;5.60;;
40515;SDS011;26216;53.724;9.898;2022-10-31T11:28:31;7.32;;;4.80;;
40515;SDS011;26216;53.724;9.898;2022-10-31T11:31:07;6.50;;;4.68;;
40515;SDS011;26216;53.724;9.898;2022-10-31T11:33:39;7.47;;;5.40;;
40515;SDS011;26216;53.724;9.898;2022-10-31T11:36:20;7.65;;;5.95;;
40515;SDS011;26216;53.724;9.898;2022-10-31T11:38:46;6.63;;;4.68;;
40515;SDS011;26216;53.724;9.898;2022-10-31T11:41:23;8.55;;;6.13;;
40515;SDS011;26216;53.724;9.898;2022-10-31T11:44:02;10.27;;;6.70;;
40515;SDS011;26216;53.724;9.898;2022-10-31T11:49:11;6.50;;;5.00;;
40515;SDS011;26216;53.724;9.898;2022-10-31T11:51:52;6.88;;;4.97;;
40515;SDS011;26216;53.724;9.898;2022-10-31T11:54:25;8.32;;;4.78;;
40515;SDS011;26216;53.724;9.898;2022-10-31T11:57:03;7.13;;;5.68;;
40515;SDS011;26216;53.724;9.898;2022-10-31T11:59:30;8.13;;;4.90;;
40515;SDS011;26216;53.724;9.898;2022-10-31T12:02:00;7.80;;;4.10;;
40515;SDS011;26216;53.724;9.898;2022-10-31T12:04:29;6.05;;;3.85;;
40515;SDS011;26216;53.724;9.898;2022-10-31T12:07:05;6.57;;;4.60;;
40515;SDS011;26216;53.724;9.898;2022-10-31T12:09:35;6.57;;;4.53;;
40515;SDS011;26216;53.724;9.898;2022-10-31T12:12:47;6.85;;;5.30;;
40515;SDS011;26216;53.724;9.898;2022-10-31T12:18:01;6.55;;;4.90;;
40515;SDS011;26216;53.724;9.898;2022-10-31T12:24:05;5.97;;;4.78;;
40515;SDS011;26216;53.724;9.898;2022-10-31T12:32:23;5.82;;;4.05;;
40515;SDS011;26216;53.724;9.898;2022-10-31T12:38:21;5.32;;;4.13;;
40515;SDS011;26216;53.724;9.898;2022-10-31T12:44:06;5.15;;;3.75;;
40515;SDS011;26216;53.724;9.898;2022-10-31T12:49:43;5.80;;;4.47;;
40515;SDS011;26216;53.724;9.898;2022-10-31T12:57:42;7.35;;;4.55;;
40515;SDS011;26216;53.724;9.898;2022-10-31T13:00:11;6.45;;;4.13;;
40515;SDS011;26216;53.724;9.898;2022-10-31T13:02:53;5.78;;;4.00;;
40515;SDS011;26216;53.724;9.898;2022-10-31T13:05:43;5.68;;;4.28;;
40515;SDS011;26216;53.724;9.898;2022-10-31T13:16:46;5.32;;;3.67;;
40515;SDS011;26216;53.724;9.898;2022-10-31T13:19:17;6.20;;;3.90;;
40515;SDS011;26216;53.724;9.898;2022-10-31T13:24:52;5.10;;;3.88;;
40515;SDS011;26216;53.724;9.898;2022-10-31T13:27:30;5.53;;;3.92;;
40515;SDS011;26216;53.724;9.898;2022-10-31T13:30:29;4.80;;;4.13;;
40515;SDS011;26216;53.724;9.898;2022-10-31T13:33:05;5.47;;;3.67;;
40515;SDS011;26216;53.724;9.898;2022-10-31T13:38:24;4.57;;;3.50;;
40515;SDS011;26216;53.724;9.898;2022-10-31T13:41:40;4.35;;;3.47;;
40515;SDS011;26216;53.724;9.898;2022-10-31T13:47:29;6.78;;;4.65;;
40515;SDS011;26216;53.724;9.898;2022-10-31T13:50:27;5.78;;;4.10;;
40515;SDS011;26216;53.724;9.898;2022-10-31T13:56:03;4.85;;;3.60;;
40515;SDS011;26216;53.724;9.898;2022-10-31T13:58:57;7.10;;;3.92;;
40515;SDS011;26216;53.724;9.898;2022-10-31T14:01:46;7.60;;;4.53;;
40515;SDS011;26216;53.724;9.898;2022-10-31T14:04:50;6.45;;;4.63;;
40515;SDS011;26216;53.724;9.898;2022-10-31T14:07:41;6.07;;;4.13;;
40515;SDS011;26216;53.724;9.898;2022-10-31T14:10:28;5.15;;;3.63;;
40515;SDS011;26216;53.724;9.898;2022-10-31T14:13:28;6.20;;;3.90;;
40515;SDS011;26216;53.724;9.898;2022-10-31T14:19:08;5.85;;;4.50;;
40515;SDS011;26216;53.724;9.898;2022-10-31T14:22:02;7.20;;;5.65;;
40515;SDS011;26216;53.724;9.898;2022-10-31T14:24:46;6.57;;;5.28;;
40515;SDS011;26216;53.724;9.898;2022-10-31T14:27:34;7.13;;;5.10;;
40515;SDS011;26216;53.724;9.898;2022-10-31T14:30:28;5.63;;;4.65;;
40515;SDS011;26216;53.724;9.898;2022-10-31T14:33:18;6.88;;;4.80;;
40515;SDS011;26216;53.724;9.898;2022-10-31T14:36:06;6.78;;;5.13;;
40515;SDS011;26216;53.724;9.898;2022-10-31T14:39:08;9.20;;;6.53;;
40515;SDS011;26216;53.724;9.898;2022-10-31T14:42:16;8.90;;;6.40;;
40515;SDS011;26216;53.724;9.898;2022-10-31T14:52:51;8.65;;;6.80;;
40515;SDS011;26216;53.724;9.898;2022-10-31T14:55:20;10.70;;;7.13;;
40515;SDS011;26216;53.724;9.898;2022-10-31T14:57:50;9.82;;;7.47;;
40515;SDS011;26216;53.724;9.898;2022-10-31T15:00:43;8.10;;;6.57;;
40515;SDS011;26216;53.724;9.898;2022-10-31T15:03:22;8.70;;;6.65;;
40515;SDS011;26216;53.724;9.898;2022-10-31T15:05:53;7.22;;;5.38;;
40515;SDS011;26216;53.724;9.898;2022-10-31T15:13:47;5.57;;;4.50;;
40515;SDS011;26216;53.724;9.898;2022-10-31T15:16:16;7.28;;;5.25;;
40515;SDS011;26216;53.724;9.898;2022-10-31T15:18:48;7.95;;;5.63;;
40515;SDS011;26216;53.724;9.898;2022-10-31T15:21:18;6.97;;;5.88;;
40515;SDS011;26216;53.724;9.898;2022-10-31T15:23:46;7.60;;;5.43;;
40515;SDS011;26216;53.724;9.898;2022-10-31T15:26:15;7.15;;;5.38;;
40515;SDS011;26216;53.724;9.898;2022-10-31T15:28:43;7.47;;;5.47;;
40515;SDS011;26216;53.724;9.898;2022-10-31T15:31:15;7.28;;;5.38;;
40515;SDS011;26216;53.724;9.898;2022-10-31T15:33:44;6.43;;;4.95;;
40515;SDS011;26216;53.724;9.898;2022-10-31T15:36:21;7.13;;;5.47;;
40515;SDS011;26216;53.724;9.898;2022-10-31T15:38:48;6.55;;;5.68;;
40515;SDS011;26216;53.724;9.898;2022-10-31T15:41:34;7.72;;;5.15;;
40515;SDS011;26216;53.724;9.898;2022-10-31T15:44:14;9.13;;;6.20;;
40515;SDS011;26216;53.724;9.898;2022-10-31T15:47:00;10.40;;;7.32;;
40515;SDS011;26216;53.724;9.898;2022-10-31T15:52:06;8.53;;;6.63;;
40515;SDS011;26216;53.724;9.898;2022-10-31T15:54:54;9.25;;;6.55;;
40515;SDS011;26216;53.724;9.898;2022-10-31T15:57:43;9.65;;;7.30;;
40515;SDS011;26216;53.724;9.898;2022-10-31T16:02:49;14.40;;;8.43;;
40515;SDS011;26216;53.724;9.898;2022-10-31T16:05:18;10.25;;;7.38;;
40515;SDS011;26216;53.724;9.898;2022-10-31T16:07:48;9.95;;;7.43;;
40515;SDS011;26216;53.724;9.898;2022-10-31T16:10:24;9.65;;;7.13;;
40515;SDS011;26216;53.724;9.898;2022-10-31T16:12:51;11.15;;;6.90;;
40515;SDS011;26216;53.724;9.898;2022-10-31T16:15:20;8.48;;;6.53;;
40515;SDS011;26216;53.724;9.898;2022-10-31T16:17:48;9.40;;;6.72;;
40515;SDS011;26216;53.724;9.898;2022-10-31T16:20:21;7.35;;;5.43;;
40515;SDS011;26216;53.724;9.898;2022-10-31T16:22:53;7.72;;;5.90;;
40515;SDS011;26216;53.724;9.898;2022-10-31T16:27:53;7.15;;;4.95;;
40515;SDS011;26216;53.724;9.898;2022-10-31T16:30:39;7.53;;;5.32;;
40515;SDS011;26216;53.724;9.898;2022-10-31T16:38:57;8.65;;;5.00;;
40515;SDS011;26216;53.724;9.898;2022-10-31T16:41:23;10.45;;;5.35;;
40515;SDS011;26216;53.724;9.898;2022-10-31T16:43:50;8.70;;;5.97;;
40515;SDS011;26216;53.724;9.898;2022-10-31T16:46:26;9.48;;;6.38;;
40515;SDS011;26216;53.724;9.898;2022-10-31T16:48:53;8.52;;;5.85;;
40515;SDS011;26216;53.724;9.898;2022-10-31T16:51:19;7.80;;;5.63;;
40515;SDS011;26216;53.724;9.898;2022-10-31T16:53:45;7.47;;;5.65;;
40515;SDS011;26216;53.724;9.898;2022-10-31T16:56:18;7.38;;;5.10;;
40515;SDS011;26216;53.724;9.898;2022-10-31T16:58:54;7.65;;;4.80;;
40515;SDS011;26216;53.724;9.898;2022-10-31T17:01:21;6.22;;;5.10;;
40515;SDS011;26216;53.724;9.898;2022-10-31T17:03:47;9.32;;;6.18;;
40515;SDS011;26216;53.724;9.898;2022-10-31T17:06:13;7.70;;;5.82;;
40515;SDS011;26216;53.724;9.898;2022-10-31T17:08:40;9.38;;;7.15;;
40515;SDS011;26216;53.724;9.898;2022-10-31T17:11:07;9.10;;;6.32;;
40515;SDS011;26216;53.724;9.898;2022-10-31T17:13:40;12.38;;;8.50;;
40515;SDS011;26216;53.724;9.898;2022-10-31T17:16:06;11.80;;;8.88;;
40515;SDS011;26216;53.724;9.898;2022-10-31T17:18:32;14.80;;;9.38;;
40515;SDS011;26216;53.724;9.898;2022-10-31T17:20:59;14.13;;;10.68;;
40515;SDS011;26216;53.724;9.898;2022-10-31T17:23:27;14.68;;;10.48;;
40515;SDS011;26216;53.724;9.898;2022-10-31T17:25:54;13.57;;;10.00;;
40515;SDS011;26216;53.724;9.898;2022-10-31T17:28:21;14.30;;;9.95;;
40515;SDS011;26216;53.724;9.898;2022-10-31T17:30:47;15.02;;;10.30;;
40515;SDS011;26216;53.724;9.898;2022-10-31T17:33:14;15.10;;;10.93;;
40515;SDS011;26216;53.724;9.898;2022-10-31T17:35:41;17.05;;;11.90;;
40515;SDS011;26216;53.724;9.898;2022-10-31T17:38:09;17.17;;;12.57;;
40515;SDS011;26216;53.724;9.898;2022-10-31T17:40:36;17.50;;;11.95;;
40515;SDS011;26216;53.724;9.898;2022-10-31T17:43:03;16.23;;;10.60;;
40515;SDS011;26216;53.724;9.898;2022-10-31T17:45:29;18.17;;;12.25;;
40515;SDS011;26216;53.724;9.898;2022-10-31T17:47:56;14.95;;;9.90;;